Time;durP1;ratioP1;P1;durP2;ratioP2;P2;SDS_P1;SDS_P2;PMS_P1;PMS_P2;Temp;Humidity;BMP_temperature;BMP_pressure;BME280_temperature;BME280_humidity;BME280_pressure;Samples;Min_cycle;Max_cycle;Signal;HPM_P1;HPM_P2
2021/04/24 00:00:12;;;;;;;2.87;2.40;;;;;;;4.54;67.67;99802.80;1773771;80;21125;-65
2021/04/24 00:02:41;;;;;;;5.58;2.37;;;;;;;4.52;67.89;99801.66;1778757;80;21205;-64
2021/04/24 00:05:19;;;;;;;3.10;2.47;;;;;;;4.50;67.90;99796.25;1756552;80;21158;-64
2021/04/24 00:07:47;;;;;;;3.12;2.80;;;;;;;4.46;68.34;99799.83;1725600;82;21198;-63
2021/04/24 00:10:15;;;;;;;3.42;2.30;;;;;;;4.42;68.46;99800.45;1752907;81;21179;-65
2021/04/24 00:12:44;;;;;;;6.42;3.17;;;;;;;4.40;68.58;99800.68;1751378;80;21229;-62
2021/04/24 00:15:13;;;;;;;4.60;2.55;;;;;;;4.36;68.76;99802.91;1780245;80;21215;-62
2021/04/24 00:17:41;;;;;;;5.47;2.67;;;;;;;4.32;68.99;99808.34;1781006;80;21163;-63
2021/04/24 00:20:13;;;;;;;2.40;2.20;;;;;;;4.31;69.02;99806.73;1781595;80;21195;-62
2021/04/24 00:22:42;;;;;;;3.92;2.67;;;;;;;4.28;69.17;99801.80;1752763;80;21043;-62
2021/04/24 00:25:11;;;;;;;3.25;2.50;;;;;;;4.27;69.34;99800.67;1782595;80;21185;-64
2021/04/24 00:27:39;;;;;;;4.95;2.75;;;;;;;4.21;69.52;99797.02;1758066;80;21194;-62
2021/04/24 00:30:09;;;;;;;2.08;1.75;;;;;;;4.19;69.86;99802.22;1782835;80;21150;-62
2021/04/24 00:32:38;;;;;;;3.87;2.45;;;;;;;4.15;69.96;99795.67;1782626;80;21192;-60
2021/04/24 00:35:07;;;;;;;3.62;2.40;;;;;;;4.12;70.27;99796.09;1782475;80;21118;-62
2021/04/24 00:37:35;;;;;;;2.95;2.62;;;;;;;4.10;70.51;99796.80;1751558;81;21186;-59
2021/04/24 00:40:05;;;;;;;3.40;2.62;;;;;;;4.08;70.62;99796.17;1727953;81;21158;-61
2021/04/24 00:42:33;;;;;;;4.62;2.42;;;;;;;4.09;70.85;99792.50;1736044;80;21167;-60
2021/04/24 00:45:01;;;;;;;4.45;2.50;;;;;;;4.11;70.91;99786.47;1785012;80;21196;-62
2021/04/24 00:47:28;;;;;;;3.72;2.40;;;;;;;4.12;70.95;99788.94;1758242;80;21232;-64
2021/04/24 00:49:56;;;;;;;3.42;2.60;;;;;;;4.13;71.07;99789.22;1758084;80;21615;-63
2021/04/24 00:52:25;;;;;;;3.80;2.98;;;;;;;4.11;71.32;99801.11;1782649;80;21182;-62
2021/04/24 00:54:53;;;;;;;3.90;2.10;;;;;;;4.09;71.42;99793.83;1782475;80;21118;-64
2021/04/24 00:57:21;;;;;;;4.45;2.85;;;;;;;4.06;71.66;99791.59;1782631;80;21311;-65
2021/04/24 00:59:49;;;;;;;5.45;2.12;;;;;;;4.02;71.74;99791.19;1756686;80;21182;-65
2021/04/24 01:02:18;;;;;;;2.87;2.42;;;;;;;4.01;71.92;99791.38;1782458;80;21052;-66
2021/04/24 01:04:45;;;;;;;2.67;2.10;;;;;;;3.99;72.04;99792.91;1758323;80;21560;-64
2021/04/24 01:07:13;;;;;;;2.33;2.12;;;;;;;3.99;72.31;99800.06;1758524;80;21182;-66
2021/04/24 01:09:42;;;;;;;3.98;2.25;;;;;;;3.99;72.57;99804.88;1782723;80;22640;-65
2021/04/24 01:12:10;;;;;;;2.70;2.10;;;;;;;4.01;72.54;99798.86;1760547;80;21204;-63
2021/04/24 01:14:39;;;;;;;4.42;2.47;;;;;;;4.03;72.69;99790.68;1782413;80;21103;-62
2021/04/24 01:17:07;;;;;;;2.72;2.25;;;;;;;4.02;72.89;99790.37;1737909;80;21196;-63
2021/04/24 01:19:35;;;;;;;2.83;2.20;;;;;;;4.01;73.00;99788.72;1731034;81;21555;-64
2021/04/24 01:22:08;;;;;;;4.12;2.52;;;;;;;3.98;73.19;99793.13;1769344;80;22754;-64
2021/04/24 01:24:36;;;;;;;3.30;2.02;;;;;;;3.89;73.50;99794.64;1754857;80;21604;-65
2021/04/24 01:27:05;;;;;;;4.97;2.33;;;;;;;3.89;73.50;99794.64;1771769;80;21146;-63
2021/04/24 01:29:36;;;;;;;3.65;2.27;;;;;;;3.88;73.73;99796.20;1771604;80;21004;-64
2021/04/24 01:32:05;;;;;;;2.65;1.98;;;;;;;3.84;73.95;99794.44;1771803;80;21467;-63
2021/04/24 01:34:33;;;;;;;3.05;1.82;;;;;;;3.84;74.14;99789.63;1770381;80;21205;-64
2021/04/24 01:37:01;;;;;;;4.05;2.15;;;;;;;3.84;74.41;99789.11;1770386;80;21015;-63
2021/04/24 01:39:30;;;;;;;4.78;2.17;;;;;;;3.85;74.41;99791.27;1770266;80;21564;-63
2021/04/24 01:41:58;;;;;;;5.05;2.70;;;;;;;3.84;74.51;99786.96;1771836;80;21057;-63
2021/04/24 01:44:26;;;;;;;2.72;2.47;;;;;;;3.82;74.56;99782.38;1794214;80;21142;-64
2021/04/24 01:46:54;;;;;;;4.35;2.77;;;;;;;3.78;74.66;99787.80;1771717;80;21726;-61
2021/04/24 01:49:22;;;;;;;2.75;2.40;;;;;;;3.74;74.76;99783.38;1786115;79;21205;-64
2021/04/24 01:51:50;;;;;;;3.42;2.22;;;;;;;3.70;74.97;99785.31;1792731;79;21178;-63
2021/04/24 01:54:18;;;;;;;3.98;1.90;;;;;;;3.68;75.20;99792.19;1797725;79;21158;-64
2021/04/24 01:56:54;;;;;;;2.65;2.08;;;;;;;3.65;75.40;99787.25;1797917;79;22225;-65
2021/04/24 01:59:26;;;;;;;4.22;2.00;;;;;;;3.65;75.51;99785.10;1793782;79;22248;-62
2021/04/24 02:01:56;;;;;;;2.52;2.33;;;;;;;3.64;75.69;99796.78;1794007;79;21181;-62
2021/04/24 02:04:26;;;;;;;2.50;1.75;;;;;;;3.61;75.64;99794.52;1746203;80;21019;-63
2021/04/24 02:06:54;;;;;;;2.08;1.87;;;;;;;3.58;75.84;99809.05;1725563;82;21193;-61
2021/04/24 02:09:23;;;;;;;2.67;2.42;;;;;;;3.53;75.97;99802.69;1752452;80;21605;-62
2021/04/24 02:12:08;;;;;;;3.22;2.65;;;;;;;3.48;76.05;99797.97;1773105;80;21016;-62
2021/04/24 02:17:34;;;;;;;3.15;2.05;;;;;;;3.42;76.26;99789.47;1751348;80;21144;-61
2021/04/24 02:20:04;;;;;;;3.98;2.15;;;;;;;3.44;76.34;99798.08;1770131;80;21160;-62
2021/04/24 02:22:32;;;;;;;4.35;3.10;;;;;;;3.44;76.34;99787.44;1720886;82;21152;-64
2021/04/24 02:25:02;;;;;;;4.08;2.90;;;;;;;3.43;76.31;99797.25;1682916;82;21140;-60
2021/04/24 02:27:30;;;;;;;2.87;2.67;;;;;;;3.41;76.34;99791.81;1745459;82;21160;-62
2021/04/24 02:29:58;;;;;;;5.03;2.50;;;;;;;3.39;76.45;99797.85;1746165;81;21173;-63
2021/04/24 02:32:31;;;;;;;5.03;2.72;;;;;;;3.35;76.51;99802.76;1754413;81;21162;-63
2021/04/24 02:34:59;;;;;;;5.30;4.15;;;;;;;3.32;76.61;99800.48;1754699;81;21558;-64
2021/04/24 02:37:27;;;;;;;4.97;2.62;;;;;;;3.30;76.76;99801.72;1773818;80;21193;-61
2021/04/24 02:39:55;;;;;;;2.98;2.58;;;;;;;3.30;76.96;99803.05;1777714;80;21206;-62
2021/04/24 02:42:28;;;;;;;2.92;2.67;;;;;;;3.30;77.27;99820.33;1777979;80;21148;-63
2021/04/24 02:44:57;;;;;;;4.55;3.45;;;;;;;3.29;77.43;99808.87;1777681;80;21545;-63
2021/04/24 02:47:24;;;;;;;2.90;2.60;;;;;;;3.27;77.37;99804.25;1749932;81;21108;-61
2021/04/24 02:49:52;;;;;;;4.05;2.77;;;;;;;3.26;77.55;99796.49;1794155;79;21262;-61
2021/04/24 02:52:20;;;;;;;2.58;2.33;;;;;;;3.20;77.92;99794.63;1809849;79;21125;-62
2021/04/24 02:54:48;;;;;;;6.35;3.33;;;;;;;3.18;77.97;99800.13;1789181;79;20940;-63
2021/04/24 02:57:16;;;;;;;3.90;2.75;;;;;;;3.17;78.14;99817.09;1801870;79;21148;-62
2021/04/24 02:59:44;;;;;;;4.62;2.98;;;;;;;3.17;78.35;99811.77;1757591;80;21129;-62
2021/04/24 03:02:14;;;;;;;3.42;2.45;;;;;;;3.20;78.47;99811.91;1763106;80;21165;-61
2021/04/24 03:04:43;;;;;;;4.45;2.65;;;;;;;3.19;78.73;99808.92;1767842;80;21047;-60
2021/04/24 03:07:11;;;;;;;3.27;2.60;;;;;;;3.15;79.00;99813.83;1723828;82;21175;-61
2021/04/24 03:09:39;;;;;;;3.55;2.90;;;;;;;3.13;79.21;99819.84;1727789;81;21149;-63
2021/04/24 03:12:08;;;;;;;5.67;3.12;;;;;;;3.12;79.40;99818.73;1732109;82;21122;-61
2021/04/24 03:14:35;;;;;;;3.90;3.12;;;;;;;3.12;79.52;99821.38;1718586;81;21263;-62
2021/04/24 03:17:03;;;;;;;3.08;2.75;;;;;;;3.11;79.70;99823.22;1727078;81;21131;-61
2021/04/24 03:19:31;;;;;;;5.17;3.20;;;;;;;3.13;80.04;99817.69;1707652;83;21193;-62
2021/04/24 03:21:59;;;;;;;4.10;3.30;;;;;;;3.14;80.12;99821.48;1719546;83;21125;-63
2021/04/24 03:24:27;;;;;;;4.42;3.12;;;;;;;3.16;80.27;99822.12;1719391;83;21178;-62
2021/04/24 03:26:55;;;;;;;3.35;3.05;;;;;;;3.16;80.35;99824.77;1702927;82;21175;-61
2021/04/24 03:29:23;;;;;;;2.98;2.70;;;;;;;3.17;80.38;99820.25;1722997;82;21590;-67
2021/04/24 03:31:51;;;;;;;3.55;3.08;;;;;;;3.18;80.54;99816.58;1691929;83;21119;-62
2021/04/24 03:34:19;;;;;;;3.92;3.20;;;;;;;3.16;80.68;99823.45;1689325;83;21633;-62
2021/04/24 03:36:48;;;;;;;4.85;3.35;;;;;;;3.16;80.87;99822.62;1693774;83;21612;-61
2021/04/24 03:39:15;;;;;;;3.95;3.30;;;;;;;3.17;80.99;99826.39;1691825;83;21156;-60
2021/04/24 03:41:44;;;;;;;5.03;3.70;;;;;;;3.19;81.16;99839.48;1713695;83;21164;-63
2021/04/24 03:44:11;;;;;;;5.65;5.05;;;;;;;3.21;81.10;99835.63;1689074;83;21028;-62
2021/04/24 03:46:39;;;;;;;5.85;4.28;;;;;;;3.22;81.12;99846.55;1689197;83;21817;-62
2021/04/24 03:49:07;;;;;;;3.98;3.15;;;;;;;3.21;81.20;99843.61;1720991;82;21156;-61
2021/04/24 03:51:35;;;;;;;5.30;3.92;;;;;;;3.24;81.26;99847.69;1716170;82;21137;-61
2021/04/24 03:54:05;;;;;;;5.35;3.77;;;;;;;3.27;81.24;99864.05;1724404;82;21137;-62
2021/04/24 03:56:32;;;;;;;4.05;3.52;;;;;;;3.32;81.21;99854.97;1707968;83;21043;-62
2021/04/24 03:59:00;;;;;;;5.10;4.33;;;;;;;3.37;81.09;99859.19;1708675;82;21993;-61
2021/04/24 04:01:28;;;;;;;4.70;3.50;;;;;;;3.38;80.98;99863.48;1731550;82;21151;-62
2021/04/24 04:03:55;;;;;;;6.53;3.62;;;;;;;3.40;80.99;99868.62;1689108;83;21718;-61
2021/04/24 04:06:24;;;;;;;6.47;3.80;;;;;;;3.40;80.96;99854.00;1693351;83;21615;-62
2021/04/24 04:08:52;;;;;;;3.62;3.10;;;;;;;3.43;80.95;99863.72;1721194;81;21172;-61
2021/04/24 04:11:22;;;;;;;3.80;3.02;;;;;;;3.48;80.85;99859.13;1740109;82;21190;-62
2021/04/24 04:13:49;;;;;;;5.10;3.52;;;;;;;3.53;80.74;99862.00;1713727;83;21261;-61
2021/04/24 04:16:18;;;;;;;4.62;3.00;;;;;;;3.58;80.60;99866.22;1722763;82;22140;-62
2021/04/24 04:18:47;;;;;;;4.17;3.08;;;;;;;3.62;80.39;99866.63;1725678;81;21209;-61
2021/04/24 04:21:15;;;;;;;7.62;3.95;;;;;;;3.65;80.22;99868.37;1703080;84;21586;-61
2021/04/24 04:23:42;;;;;;;5.72;3.72;;;;;;;3.68;80.06;99877.80;1702975;84;21140;-62
2021/04/24 04:26:11;;;;;;;4.53;3.50;;;;;;;3.68;80.01;99877.80;1703572;84;21098;-63
2021/04/24 04:28:39;;;;;;;3.60;2.87;;;;;;;3.70;79.97;99878.41;1717478;82;22572;-61
2021/04/24 04:31:06;;;;;;;3.30;3.00;;;;;;;3.76;80.00;99878.94;1693965;83;21159;-62
2021/04/24 04:33:34;;;;;;;4.42;3.47;;;;;;;3.79;79.71;99871.91;1719549;82;21183;-62
2021/04/24 04:36:04;;;;;;;15.40;6.15;;;;;;;3.82;79.41;99878.97;1697563;83;21520;-63
2021/04/24 04:38:32;;;;;;;3.77;3.05;;;;;;;3.85;79.36;99871.08;1695064;83;21108;-62
2021/04/24 04:41:00;;;;;;;4.53;3.20;;;;;;;3.86;79.09;99880.20;1693968;83;21162;-60
2021/04/24 04:43:28;;;;;;;2.85;2.47;;;;;;;3.91;79.11;99876.93;1716936;83;21684;-61
2021/04/24 04:45:56;;;;;;;6.08;3.72;;;;;;;3.98;79.09;99880.94;1686472;83;21127;-62
2021/04/24 04:48:24;;;;;;;3.02;2.75;;;;;;;4.05;78.51;99869.78;1716716;83;21111;-60
2021/04/24 04:50:52;;;;;;;6.00;3.72;;;;;;;4.13;78.39;99861.59;1716895;83;21619;-61
2021/04/24 04:53:20;;;;;;;3.27;2.98;;;;;;;4.20;78.05;99873.07;1718890;82;22630;-63
2021/04/24 04:55:50;;;;;;;7.08;3.22;;;;;;;4.24;77.30;99880.95;1690591;83;21175;-62
2021/04/24 04:58:17;;;;;;;6.40;2.98;;;;;;;4.23;76.65;99885.97;1717958;82;21151;-61
2021/04/24 05:00:45;;;;;;;8.45;3.42;;;;;;;4.22;76.08;99874.48;1716811;83;21107;-61
2021/04/24 05:03:13;;;;;;;3.37;3.08;;;;;;;4.23;76.07;99868.66;1716865;83;21616;-60
2021/04/24 05:05:42;;;;;;;3.15;2.83;;;;;;;4.28;75.97;99864.37;1722714;82;22770;-66
2021/04/24 05:08:09;;;;;;;4.10;2.58;;;;;;;4.36;75.55;99872.68;1722152;82;21140;-62
2021/04/24 05:10:37;;;;;;;3.60;2.90;;;;;;;4.43;74.84;99884.13;1747808;81;21617;-61
2021/04/24 05:13:07;;;;;;;2.75;2.50;;;;;;;4.44;74.54;99878.30;1733135;82;21994;-63
2021/04/24 05:15:37;;;;;;;6.47;2.87;;;;;;;4.42;74.05;99889.14;1732236;82;21040;-68
2021/04/24 05:18:04;;;;;;;5.15;2.60;;;;;;;4.41;74.02;99881.38;1686710;83;21329;-61
2021/04/24 05:20:32;;;;;;;6.90;4.20;;;;;;;4.41;73.92;99888.86;1710290;83;21148;-64
2021/04/24 05:23:00;;;;;;;7.22;3.80;;;;;;;4.42;73.50;99874.50;1710564;82;21585;-62
2021/04/24 05:25:27;;;;;;;5.22;4.25;;;;;;;4.46;73.43;99878.38;1653681;85;21217;-63
2021/04/24 05:27:57;;;;;;;2.60;2.40;;;;;;;4.52;72.95;99883.41;1693477;84;21176;-63
2021/04/24 05:30:25;;;;;;;4.60;2.40;;;;;;;4.57;72.61;99863.13;1670665;84;21260;-62
2021/04/24 05:32:54;;;;;;;6.60;2.90;;;;;;;4.62;72.60;99856.66;1676133;85;21164;-62
2021/04/24 05:35:22;;;;;;;4.80;2.62;;;;;;;4.66;72.66;99867.20;1692428;82;21210;-62
2021/04/24 05:37:50;;;;;;;4.60;2.90;;;;;;;4.70;71.83;99868.42;1716677;83;21135;-64
2021/04/24 05:40:19;;;;;;;6.85;2.47;;;;;;;4.72;71.67;99877.05;1694093;83;21585;-61
2021/04/24 05:42:48;;;;;;;2.65;2.45;;;;;;;4.77;71.64;99884.41;1719461;82;21587;-61
2021/04/24 05:45:15;;;;;;;3.27;2.83;;;;;;;4.81;71.40;99869.13;1699423;83;21166;-63
2021/04/24 05:47:46;;;;;;;6.75;3.00;;;;;;;4.82;71.46;99873.44;1670149;84;21642;-62
2021/04/24 05:50:17;;;;;;;3.33;3.02;;;;;;;4.87;71.44;99879.48;1704614;84;21026;-63
2021/04/24 05:52:44;;;;;;;4.35;2.52;;;;;;;4.92;71.02;99868.19;1722297;83;21172;-64
2021/04/24 05:55:16;;;;;;;4.40;2.85;;;;;;;4.96;70.58;99883.55;1700446;83;21154;-63
2021/04/24 05:57:44;;;;;;;2.30;2.10;;;;;;;4.99;70.44;99892.45;1672784;83;21154;-64
2021/04/24 06:00:16;;;;;;;4.08;2.90;;;;;;;4.99;69.89;99881.00;1696232;82;21215;-63
2021/04/24 06:02:44;;;;;;;3.35;2.77;;;;;;;4.96;69.81;99908.05;1708791;82;21217;-63
2021/04/24 06:05:12;;;;;;;7.85;2.65;;;;;;;4.93;69.95;99873.83;1748148;82;21096;-62
2021/04/24 06:07:40;;;;;;;5.42;3.17;;;;;;;4.94;70.28;99884.80;1719851;83;21933;-62
2021/04/24 06:10:13;;;;;;;2.95;2.35;;;;;;;4.95;70.48;99886.42;1723556;82;21193;-62
2021/04/24 06:12:41;;;;;;;7.70;3.45;;;;;;;4.97;70.65;99879.05;1687567;83;21207;-63
2021/04/24 06:15:11;;;;;;;7.33;3.33;;;;;;;4.98;70.68;99892.69;1717537;83;21625;-64
2021/04/24 06:17:39;;;;;;;6.10;2.98;;;;;;;5.00;70.67;99887.44;1704365;83;21164;-63
2021/04/24 06:20:10;;;;;;;4.22;3.10;;;;;;;5.04;70.19;99891.31;1714344;82;21195;-66
2021/04/24 06:22:38;;;;;;;3.62;2.55;;;;;;;5.12;69.98;99872.96;1691689;84;21594;-63
2021/04/24 06:25:09;;;;;;;3.45;2.65;;;;;;;5.17;69.39;99881.97;1736408;81;21549;-63
2021/04/24 06:27:36;;;;;;;4.72;3.33;;;;;;;5.22;68.69;99900.83;1758399;81;21123;-64
2021/04/24 06:30:07;;;;;;;5.55;4.20;;;;;;;5.22;68.15;99888.00;1711776;82;21184;-63
2021/04/24 06:32:35;;;;;;;4.67;3.50;;;;;;;5.22;68.20;99900.00;1696927;83;21234;-66
2021/04/24 06:35:05;;;;;;;3.40;2.40;;;;;;;5.23;68.03;99881.62;1706037;83;21597;-64
2021/04/24 06:37:34;;;;;;;3.77;2.90;;;;;;;5.26;68.06;99882.55;1701490;83;21111;-66
2021/04/24 06:40:06;;;;;;;3.33;3.02;;;;;;;5.30;66.66;99874.43;1711502;82;21180;-63
2021/04/24 06:42:34;;;;;;;2.40;2.20;;;;;;;5.34;66.59;99868.97;1783988;80;21061;-65
2021/04/24 06:45:04;;;;;;;3.20;2.30;;;;;;;5.35;64.62;99891.95;1682778;83;21186;-65
2021/04/24 06:47:32;;;;;;;3.85;2.33;;;;;;;5.31;64.03;99897.41;1714847;82;21135;-64
2021/04/24 06:50:00;;;;;;;4.22;2.60;;;;;;;5.32;63.76;99881.72;1752749;81;21038;-64
2021/04/24 06:52:29;;;;;;;5.40;2.47;;;;;;;5.38;63.15;99860.84;1758583;80;21553;-64
2021/04/24 06:54:57;;;;;;;2.62;2.10;;;;;;;5.47;62.71;99868.09;1731831;82;21144;-64
2021/04/24 06:57:25;;;;;;;2.67;2.40;;;;;;;5.57;59.92;99889.28;1688081;84;22003;-65
2021/04/24 06:59:53;;;;;;;2.17;1.90;;;;;;;5.67;59.68;99888.31;1737273;81;21140;-64
2021/04/24 07:02:21;;;;;;;2.75;2.30;;;;;;;5.74;57.56;99894.95;1705826;83;21152;-66
2021/04/24 07:04:49;;;;;;;3.87;2.10;;;;;;;5.81;57.59;99880.23;1728467;82;21215;-67
2021/04/24 07:07:17;;;;;;;3.55;2.87;;;;;;;5.87;57.30;99880.74;1704081;83;21460;-63
2021/04/24 07:09:45;;;;;;;2.37;1.85;;;;;;;5.88;56.64;99879.72;1692386;83;21123;-62
2021/04/24 07:12:15;;;;;;;2.92;1.65;;;;;;;5.92;54.29;99951.66;1712742;83;21669;-64
2021/04/24 07:14:42;;;;;;;4.10;2.27;;;;;;;5.85;50.70;99910.27;1690297;83;21551;-61
2021/04/24 07:17:11;;;;;;;7.83;2.00;;;;;;;5.85;50.70;99910.27;1696364;82;21215;-62
2021/04/24 07:19:40;;;;;;;3.20;1.47;;;;;;;5.84;51.46;99885.98;1717770;83;21149;-63
2021/04/24 07:22:07;;;;;;;1.72;1.30;;;;;;;5.84;51.46;99885.98;1693579;84;21489;-62
2021/04/24 07:24:36;;;;;;;1.60;1.40;;;;;;;5.86;51.59;99901.75;1685483;83;21639;-63
2021/04/24 07:27:05;;;;;;;2.30;1.60;;;;;;;5.88;51.89;99931.77;1719413;83;21008;-61
2021/04/24 07:29:33;;;;;;;4.12;1.70;;;;;;;5.89;50.54;99884.03;1719429;83;20980;-64
2021/04/24 07:32:02;;;;;;;2.85;1.50;;;;;;;5.90;51.67;99887.01;1694617;83;21222;-62
2021/04/24 07:34:29;;;;;;;1.50;1.37;;;;;;;5.96;50.91;99897.62;1694378;83;21242;-63
2021/04/24 07:37:00;;;;;;;3.45;1.90;;;;;;;6.06;48.41;99915.84;1739831;82;21164;-62
2021/04/24 07:39:27;;;;;;;4.47;1.50;;;;;;;6.09;49.44;99902.87;1749187;82;21031;-63
2021/04/24 07:41:55;;;;;;;2.52;1.15;;;;;;;6.18;49.62;99897.30;1723351;82;21192;-64
2021/04/24 07:44:24;;;;;;;3.90;1.30;;;;;;;6.23;47.19;99924.17;1749329;82;21629;-64
2021/04/24 07:46:53;;;;;;;1.50;1.17;;;;;;;6.17;46.70;99922.36;1723446;82;22256;-64
2021/04/24 07:49:21;;;;;;;1.45;1.00;;;;;;;6.13;46.78;99894.77;1710919;82;22006;-63
2021/04/24 07:51:48;;;;;;;1.60;1.27;;;;;;;6.10;47.39;99897.02;1703363;84;21924;-63
2021/04/24 07:54:16;;;;;;;3.33;1.10;;;;;;;6.13;47.32;99920.64;1702019;84;21043;-63
2021/04/24 07:56:43;;;;;;;3.47;1.27;;;;;;;6.20;47.13;99908.05;1691811;83;21186;-63
2021/04/24 07:59:12;;;;;;;2.75;1.45;;;;;;;6.27;46.17;99924.86;1713771;83;22506;-64
2021/04/24 08:01:40;;;;;;;0.93;0.93;;;;;;;6.31;45.89;99902.53;1670038;83;21201;-63
2021/04/24 08:04:09;;;;;;;2.25;1.40;;;;;;;6.34;46.32;99899.42;1694761;83;21063;-65
2021/04/24 08:06:37;;;;;;;1.55;1.40;;;;;;;6.41;46.19;99905.54;1692946;84;21195;-63
2021/04/24 08:09:06;;;;;;;2.45;1.10;;;;;;;6.51;45.83;99915.23;1701015;82;21125;-64
2021/04/24 08:11:35;;;;;;;1.47;0.90;;;;;;;6.56;44.54;99930.91;1722787;82;22644;-64
2021/04/24 08:14:04;;;;;;;1.50;1.40;;;;;;;6.53;44.11;99897.92;1694416;83;21174;-64
2021/04/24 08:16:31;;;;;;;0.80;0.80;;;;;;;6.49;44.16;99969.39;1716348;82;21159;-63
2021/04/24 08:19:00;;;;;;;1.02;0.90;;;;;;;6.46;44.05;99950.61;1693394;83;21176;-65
2021/04/24 08:21:28;;;;;;;3.15;1.32;;;;;;;6.45;43.80;99938.80;1696175;83;21120;-63
2021/04/24 08:24:00;;;;;;;1.82;1.30;;;;;;;6.43;44.08;99947.53;1718660;82;21408;-64
2021/04/24 08:26:29;;;;;;;1.60;1.30;;;;;;;6.42;44.77;99908.52;1718555;83;21158;-63
2021/04/24 08:28:57;;;;;;;2.08;1.40;;;;;;;6.45;45.09;99916.09;1722313;83;21015;-62
2021/04/24 08:31:24;;;;;;;1.67;1.00;;;;;;;6.43;44.58;99943.52;1722476;83;21142;-64
2021/04/24 08:33:54;;;;;;;2.10;1.22;;;;;;;6.39;45.12;99922.30;1698601;82;21129;-68
2021/04/24 08:36:24;;;;;;;1.72;1.10;;;;;;;6.39;45.50;99937.80;1709332;83;21270;-64
2021/04/24 08:38:56;;;;;;;2.05;1.20;;;;;;;6.48;45.59;99929.00;1667271;84;21209;-66
2021/04/24 08:41:24;;;;;;;7.45;1.72;;;;;;;6.58;45.80;99928.00;1664063;84;21188;-63
2021/04/24 08:43:56;;;;;;;2.47;1.17;;;;;;;6.67;46.09;99956.59;1722388;83;21650;-63
2021/04/24 08:46:24;;;;;;;2.17;1.32;;;;;;;6.69;45.98;99981.27;1679989;84;21133;-65
2021/04/24 08:48:57;;;;;;;2.25;1.10;;;;;;;6.66;44.77;99959.00;1720941;83;21216;-63
2021/04/24 08:51:27;;;;;;;1.50;1.20;;;;;;;6.64;44.75;99927.14;1692723;84;21156;-63
2021/04/24 08:53:58;;;;;;;1.20;1.00;;;;;;;6.63;45.19;99967.43;1682647;83;21692;-65
2021/04/24 08:56:27;;;;;;;1.27;1.00;;;;;;;6.64;45.92;99969.07;1696609;83;21198;-66
2021/04/24 08:58:56;;;;;;;2.92;1.37;;;;;;;6.58;47.00;99949.38;1717613;83;21624;-63
2021/04/24 09:01:25;;;;;;;1.87;1.00;;;;;;;6.50;46.55;99991.89;1722358;83;21212;-66
2021/04/24 09:03:53;;;;;;;2.27;1.55;;;;;;;6.40;46.00;99946.64;1699940;83;21623;-62
2021/04/24 09:06:22;;;;;;;1.45;1.35;;;;;;;6.33;46.30;99959.23;1721404;83;21007;-65
2021/04/24 09:08:59;;;;;;;3.25;1.20;;;;;;;6.31;47.00;99972.80;1699020;83;21258;-64
2021/04/24 09:11:29;;;;;;;1.77;0.95;;;;;;;6.32;47.42;99958.42;1700010;83;21078;-64
2021/04/24 09:14:04;;;;;;;2.37;1.05;;;;;;;6.36;47.60;100003.70;1671972;83;21183;-63
2021/04/24 09:16:41;;;;;;;1.13;1.03;;;;;;;6.41;48.61;99949.63;1846977;76;25627;-62
2021/04/24 09:19:30;;;;;;;4.90;3.05;;;;;;;6.39;49.40;99989.90;1816543;79;20986;-64
2021/04/24 09:22:20;;;;;;;2.08;1.60;;;;;;;6.41;49.04;99979.00;1807496;79;22277;-62
2021/04/24 09:24:52;;;;;;;2.45;1.25;;;;;;;6.36;49.27;99950.27;1784940;79;21006;-62
2021/04/24 09:27:46;;;;;;;1.30;1.20;;;;;;;6.37;48.78;99947.91;1799689;79;20979;-65
2021/04/24 09:30:27;;;;;;;1.12;1.05;;;;;;;6.42;48.42;99938.73;1816881;79;21027;-63
2021/04/24 09:33:03;;;;;;;4.17;1.60;;;;;;;6.52;46.89;99978.33;1737654;79;21547;-64
2021/04/24 09:35:53;;;;;;;4.65;1.37;;;;;;;6.56;47.32;99980.34;1817425;78;22185;-66
2021/04/24 09:38:32;;;;;;;2.12;1.57;;;;;;;6.57;47.69;99958.42;1782887;79;21571;-67
2021/04/24 09:41:20;;;;;;;1.10;0.95;;;;;;;6.56;47.80;99962.16;1815936;78;21046;-62
2021/04/24 09:44:13;;;;;;;2.55;1.40;;;;;;;6.50;47.77;100021.80;1817047;79;21058;-64
2021/04/24 09:46:56;;;;;;;1.40;1.30;;;;;;;6.46;48.46;99974.66;1792895;79;21598;-63
2021/04/24 09:49:30;;;;;;;2.30;1.17;;;;;;;6.45;46.99;99976.20;1754140;80;26996;-64
2021/04/24 09:52:02;;;;;;;1.35;1.07;;;;;;;6.47;46.44;99996.85;1784939;80;21622;-65
2021/04/24 09:54:37;;;;;;;1.98;1.10;;;;;;;6.50;46.27;99991.89;1753653;80;20994;-65
2021/04/24 09:57:10;;;;;;;1.75;0.93;;;;;;;6.49;45.52;99995.59;1766362;80;21571;-68
2021/04/24 09:59:59;;;;;;;1.72;1.15;;;;;;;6.55;46.52;99984.56;1724261;81;21164;-64
2021/04/24 10:02:33;;;;;;;1.52;1.22;;;;;;;6.67;46.49;99988.67;1710909;82;22008;-65
2021/04/24 10:05:14;;;;;;;1.45;1.32;;;;;;;6.69;47.04;100000.80;1749419;80;21160;-65
2021/04/24 10:07:49;;;;;;;1.37;0.98;;;;;;;6.67;47.20;99996.69;1754212;80;21189;-64
2021/04/24 10:10:21;;;;;;;1.00;1.00;;;;;;;6.61;45.99;99973.02;1753861;80;21232;-65
2021/04/24 10:12:56;;;;;;;1.15;1.00;;;;;;;6.61;46.43;99963.66;1730527;80;21146;-64
2021/04/24 10:15:39;;;;;;;1.22;0.80;;;;;;;6.67;44.79;99990.83;1789435;79;21558;-66
2021/04/24 10:18:10;;;;;;;4.75;1.02;;;;;;;6.68;44.53;99959.58;1797178;79;21149;-65
2021/04/24 10:20:39;;;;;;;0.80;0.80;;;;;;;6.71;44.53;99968.52;1792939;79;21141;-66
2021/04/24 10:23:09;;;;;;;1.40;0.95;;;;;;;6.78;42.32;100017.39;1751071;79;21193;-63
2021/04/24 10:25:38;;;;;;;1.02;0.85;;;;;;;6.83;42.63;99956.06;1774260;79;21208;-64
2021/04/24 10:28:05;;;;;;;1.07;1.02;;;;;;;6.87;43.00;100020.91;1739525;79;21148;-67
2021/04/24 10:30:33;;;;;;;2.22;1.15;;;;;;;6.91;43.67;100001.23;1754927;79;21136;-63
2021/04/24 10:33:03;;;;;;;1.72;1.60;;;;;;;6.98;43.67;99973.42;1789259;78;21121;-66
2021/04/24 10:35:32;;;;;;;1.82;1.17;;;;;;;7.02;44.16;100009.89;1759694;81;21152;-65
2021/04/24 10:38:01;;;;;;;2.90;1.77;;;;;;;7.03;44.83;99959.39;1767341;79;21113;-65
2021/04/24 10:40:29;;;;;;;2.98;1.50;;;;;;;7.12;45.30;99974.11;1746822;79;21229;-66
2021/04/24 10:42:59;;;;;;;2.08;1.95;;;;;;;7.23;44.50;99992.13;1774636;79;21164;-66
2021/04/24 10:45:34;;;;;;;2.08;1.77;;;;;;;7.25;43.09;100002.58;1775459;79;21151;-64
2021/04/24 10:48:03;;;;;;;3.27;1.70;;;;;;;7.30;42.52;100003.56;1776767;79;21190;-66
2021/04/24 10:50:47;;;;;;;2.17;1.30;;;;;;;7.37;43.12;99978.91;1769856;78;21175;-66
2021/04/24 10:53:22;;;;;;;;;;;;;;;7.55;43.11;100000.84;1780728;79;22688;-67
2021/04/24 10:56:00;;;;;;;2.02;1.27;;;;;;;7.57;42.77;99997.44;1783055;79;20139;-65
2021/04/24 10:58:30;;;;;;;1.12;1.02;;;;;;;7.56;41.88;99996.30;1758471;79;20991;-65
2021/04/24 11:01:04;;;;;;;1.72;1.20;;;;;;;7.63;43.16;99978.30;1764822;81;21090;-65
2021/04/24 11:03:40;;;;;;;2.15;1.37;;;;;;;7.79;43.18;99970.50;1781411;79;21630;-68
2021/04/24 11:06:19;;;;;;;1.92;1.42;;;;;;;7.97;43.71;99998.28;1768423;79;21634;-67
2021/04/24 11:08:48;;;;;;;1.55;1.20;;;;;;;8.08;42.08;99966.73;1770218;79;21144;-65
2021/04/24 11:11:21;;;;;;;1.40;1.27;;;;;;;8.05;40.86;99990.78;1770983;79;20998;-66
2021/04/24 11:13:55;;;;;;;1.62;1.22;;;;;;;7.91;41.84;100046.89;1778522;78;21612;-66
2021/04/24 11:16:31;;;;;;;1.98;1.50;;;;;;;7.82;43.08;100054.37;1735789;80;21169;-65
2021/04/24 11:18:55;;;;;;;1.77;1.10;;;;;;;7.79;43.95;99997.79;1745360;80;22219;-66
2021/04/24 11:21:30;;;;;;;1.52;1.00;;;;;;;7.81;43.69;99989.02;1777548;80;21173;-64
2021/04/24 11:24:00;;;;;;;2.83;1.00;;;;;;;7.88;43.08;99987.06;1716027;81;21124;-66
2021/04/24 11:26:37;;;;;;;1.00;0.88;;;;;;;7.94;42.42;100016.97;1739095;80;21045;-66
2021/04/24 11:29:09;;;;;;;1.60;1.25;;;;;;;8.01;41.92;100014.22;1762036;80;21116;-67
2021/04/24 11:31:46;;;;;;;1.12;0.90;;;;;;;8.08;40.47;99974.25;1754204;80;21291;-65
2021/04/24 11:34:39;;;;;;;1.72;1.30;;;;;;;8.21;39.51;99987.45;1764427;79;21169;-68
2021/04/24 11:37:24;;;;;;;2.40;1.70;;;;;;;8.23;39.30;100002.80;1768683;80;21003;-66
2021/04/24 11:40:24;;;;;;;1.90;1.27;;;;;;;8.15;40.55;99995.05;1768731;80;21161;-65
2021/04/24 11:42:55;;;;;;;1.67;1.42;;;;;;;8.03;41.67;100002.23;1691278;83;21187;-66
2021/04/24 11:45:52;;;;;;;1.60;1.25;;;;;;;7.76;43.00;100019.15;1691139;83;21237;-67
2021/04/24 11:48:48;;;;;;;2.58;1.10;;;;;;;7.53;44.05;100032.89;1722641;82;21076;-66
2021/04/24 11:51:46;;;;;;;1.45;1.25;;;;;;;7.33;45.27;100012.50;1667169;83;21207;-65
2021/04/24 11:54:22;;;;;;;1.70;1.20;;;;;;;7.32;46.96;99993.98;1688821;82;21103;-68
2021/04/24 11:56:50;;;;;;;3.42;1.17;;;;;;;7.42;47.51;99992.44;1709451;82;21201;-65
2021/04/24 11:59:23;;;;;;;1.45;1.15;;;;;;;7.60;44.97;99990.80;1703370;82;21132;-67